sensor_id;sensor_type;location;lat;lon;timestamp;temperature;humidity
5828;DHT22;42583;50.240;8.444;2023-04-03T00:02:51;2.10;99.90
5828;DHT22;42583;50.240;8.444;2023-04-03T00:17:52;2.20;99.90
5828;DHT22;42583;50.240;8.444;2023-04-03T00:32:53;2.30;99.90
5828;DHT22;42583;50.240;8.444;2023-04-03T00:47:54;2.20;99.90
5828;DHT22;42583;50.240;8.444;2023-04-03T01:02:56;2.30;99.90
5828;DHT22;42583;50.240;8.444;2023-04-03T01:17:57;2.40;99.90
5828;DHT22;42583;50.240;8.444;2023-04-03T01:32:58;2.40;99.90
5828;DHT22;42583;50.240;8.444;2023-04-03T01:47:59;2.40;99.90
5828;DHT22;42583;50.240;8.444;2023-04-03T02:02:59;2.30;99.90
5828;DHT22;42583;50.240;8.444;2023-04-03T02:18:00;2.40;99.90
5828;DHT22;42583;50.240;8.444;2023-04-03T02:33:01;2.40;99.90
5828;DHT22;42583;50.240;8.444;2023-04-03T02:48:01;2.30;99.90
5828;DHT22;42583;50.240;8.444;2023-04-03T03:03:02;2.20;99.90
5828;DHT22;42583;50.240;8.444;2023-04-03T03:18:03;2.20;99.90
5828;DHT22;42583;50.240;8.444;2023-04-03T03:33:03;2.10;99.90
5828;DHT22;42583;50.240;8.444;2023-04-03T03:48:05;1.90;99.90
5828;DHT22;42583;50.240;8.444;2023-04-03T04:03:05;1.70;99.90
5828;DHT22;42583;50.240;8.444;2023-04-03T04:18:06;1.60;99.90
5828;DHT22;42583;50.240;8.444;2023-04-03T04:33:07;1.60;99.90
5828;DHT22;42583;50.240;8.444;2023-04-03T04:48:07;1.40;99.90
5828;DHT22;42583;50.240;8.444;2023-04-03T05:03:08;1.30;99.90
5828;DHT22;42583;50.240;8.444;2023-04-03T05:18:09;1.20;99.90
5828;DHT22;42583;50.240;8.444;2023-04-03T05:33:09;0.90;99.90
5828;DHT22;42583;50.240;8.444;2023-04-03T05:48:14;0.70;99.90
5828;DHT22;42583;50.240;8.444;2023-04-03T06:03:17;0.70;99.90
5828;DHT22;42583;50.240;8.444;2023-04-03T06:18:18;0.90;99.90
5828;DHT22;42583;50.240;8.444;2023-04-03T06:33:18;0.90;99.90
5828;DHT22;42583;50.240;8.444;2023-04-03T06:48:19;1.10;99.90
5828;DHT22;42583;50.240;8.444;2023-04-03T07:03:19;1.40;99.90
5828;DHT22;42583;50.240;8.444;2023-04-03T07:18:20;1.40;99.90
5828;DHT22;42583;50.240;8.444;2023-04-03T07:33:22;1.40;99.90
5828;DHT22;42583;50.240;8.444;2023-04-03T07:48:24;1.70;99.90
5828;DHT22;42583;50.240;8.444;2023-04-03T08:03:25;1.60;99.90
5828;DHT22;42583;50.240;8.444;2023-04-03T08:18:26;1.60;99.90
5828;DHT22;42583;50.240;8.444;2023-04-03T08:33:27;2.30;99.90
5828;DHT22;42583;50.240;8.444;2023-04-03T08:48:38;2.60;99.90
5828;DHT22;42583;50.240;8.444;2023-04-03T09:03:40;3.30;99.90
5828;DHT22;42583;50.240;8.444;2023-04-03T09:18:45;4.00;97.90
5828;DHT22;42583;50.240;8.444;2023-04-03T09:33:54;4.20;95.50
5828;DHT22;42583;50.240;8.444;2023-04-03T09:48:59;5.00;94.70
5828;DHT22;42583;50.240;8.444;2023-04-03T10:34:38;5.60;83.20
5828;DHT22;42583;50.240;8.444;2023-04-03T11:04:56;7.60;72.20
5828;DHT22;42583;50.240;8.444;2023-04-03T11:35:13;9.70;55.50
5828;DHT22;42583;50.240;8.444;2023-04-03T11:50:51;8.40;53.70
5828;DHT22;42583;50.240;8.444;2023-04-03T12:20:54;10.60;47.70
5828;DHT22;42583;50.240;8.444;2023-04-03T12:36:13;12.60;49.50
5828;DHT22;42583;50.240;8.444;2023-04-03T12:51:19;13.20;47.30
5828;DHT22;42583;50.240;8.444;2023-04-03T13:06:27;13.80;40.00
5828;DHT22;42583;50.240;8.444;2023-04-03T13:21:29;16.20;37.50
5828;DHT22;42583;50.240;8.444;2023-04-03T13:36:36;17.30;36.50
5828;DHT22;42583;50.240;8.444;2023-04-03T13:51:38;18.00;33.20
5828;DHT22;42583;50.240;8.444;2023-04-03T14:06:39;18.90;34.30
5828;DHT22;42583;50.240;8.444;2023-04-03T14:21:40;19.60;31.00
5828;DHT22;42583;50.240;8.444;2023-04-03T14:36:43;19.80;30.00
5828;DHT22;42583;50.240;8.444;2023-04-03T14:51:44;21.00;28.40
5828;DHT22;42583;50.240;8.444;2023-04-03T15:06:46;21.30;30.10
5828;DHT22;42583;50.240;8.444;2023-04-03T15:21:47;21.40;28.80
5828;DHT22;42583;50.240;8.444;2023-04-03T15:36:48;21.00;26.60
5828;DHT22;42583;50.240;8.444;2023-04-03T15:51:49;15.00;27.70
5828;DHT22;42583;50.240;8.444;2023-04-03T16:06:49;10.70;30.20
5828;DHT22;42583;50.240;8.444;2023-04-03T16:21:53;9.00;32.80
5828;DHT22;42583;50.240;8.444;2023-04-03T16:36:54;7.70;35.00
5828;DHT22;42583;50.240;8.444;2023-04-03T16:51:54;6.70;36.50
5828;DHT22;42583;50.240;8.444;2023-04-03T17:06:55;6.20;37.80
5828;DHT22;42583;50.240;8.444;2023-04-03T17:21:57;5.70;38.00
5828;DHT22;42583;50.240;8.444;2023-04-03T17:36:57;5.30;38.70
5828;DHT22;42583;50.240;8.444;2023-04-03T17:51:58;4.90;39.50
5828;DHT22;42583;50.240;8.444;2023-04-03T18:07:00;4.30;39.50
5828;DHT22;42583;50.240;8.444;2023-04-03T18:22:10;3.90;40.80
5828;DHT22;42583;50.240;8.444;2023-04-03T18:37:11;3.40;41.50
5828;DHT22;42583;50.240;8.444;2023-04-03T18:52:12;3.00;42.00
5828;DHT22;42583;50.240;8.444;2023-04-03T19:07:13;2.70;42.80
5828;DHT22;42583;50.240;8.444;2023-04-03T19:22:13;2.50;43.40
5828;DHT22;42583;50.240;8.444;2023-04-03T19:37:14;2.20;44.00
5828;DHT22;42583;50.240;8.444;2023-04-03T19:52:15;2.00;44.90
5828;DHT22;42583;50.240;8.444;2023-04-03T20:07:15;1.80;44.90
5828;DHT22;42583;50.240;8.444;2023-04-03T20:22:16;1.60;45.90
5828;DHT22;42583;50.240;8.444;2023-04-03T20:37:17;1.50;46.20
5828;DHT22;42583;50.240;8.444;2023-04-03T20:52:22;1.30;46.50
5828;DHT22;42583;50.240;8.444;2023-04-03T21:23:01;1.00;47.40
5828;DHT22;42583;50.240;8.444;2023-04-03T21:38:01;0.80;47.30
5828;DHT22;42583;50.240;8.444;2023-04-03T21:53:03;0.70;47.70
5828;DHT22;42583;50.240;8.444;2023-04-03T22:08:03;0.60;48.20
5828;DHT22;42583;50.240;8.444;2023-04-03T22:23:04;0.40;48.60
5828;DHT22;42583;50.240;8.444;2023-04-03T22:38:05;0.30;48.70
5828;DHT22;42583;50.240;8.444;2023-04-03T22:53:06;0.20;48.90
5828;DHT22;42583;50.240;8.444;2023-04-03T23:08:06;0.10;49.40
5828;DHT22;42583;50.240;8.444;2023-04-03T23:23:07;0.10;49.60
5828;DHT22;42583;50.240;8.444;2023-04-03T23:38:07;-0.10;49.90
5828;DHT22;42583;50.240;8.444;2023-04-03T23:53:08;-0.10;50.90
